createdAt,value
2023-02-06T00:00:18.307Z,5.20
2023-02-06T00:02:46.770Z,6.63
2023-02-06T00:05:15.270Z,6.87
2023-02-06T00:07:43.744Z,7.97
2023-02-06T00:10:12.155Z,7.20
2023-02-06T00:12:40.562Z,7.00
2023-02-06T00:15:12.063Z,6.40
2023-02-06T00:17:40.500Z,8.03
2023-02-06T00:20:09.718Z,6.50
2023-02-06T00:22:38.320Z,8.43
2023-02-06T00:25:07.034Z,7.23
2023-02-06T00:27:35.529Z,5.23
2023-02-06T00:30:04.017Z,7.37
2023-02-06T00:32:33.856Z,6.17
2023-02-06T00:35:02.333Z,6.13
2023-02-06T00:37:30.744Z,10.00
2023-02-06T00:39:59.266Z,6.67
2023-02-06T00:42:27.698Z,5.73
2023-02-06T00:44:56.093Z,5.73
2023-02-06T00:47:24.457Z,5.70
2023-02-06T00:49:54.301Z,7.30
2023-02-06T00:52:22.712Z,5.77
2023-02-06T00:54:51.095Z,5.53
2023-02-06T00:57:19.548Z,5.83
2023-02-06T00:59:47.946Z,7.47
2023-02-06T01:02:16.356Z,6.40
2023-02-06T01:04:44.773Z,7.07
2023-02-06T01:07:14.533Z,4.90
2023-02-06T01:09:43.167Z,8.00
2023-02-06T01:12:11.598Z,8.10
2023-02-06T01:14:40.302Z,7.90
2023-02-06T01:17:10.264Z,6.27
2023-02-06T01:19:39.270Z,7.13
2023-02-06T01:22:07.987Z,5.87
2023-02-06T01:24:37.848Z,5.50
2023-02-06T01:27:06.369Z,8.90
2023-02-06T01:29:34.795Z,5.67
2023-02-06T01:32:03.186Z,7.03
2023-02-06T01:34:31.602Z,8.00
2023-02-06T01:37:00.005Z,7.63
2023-02-06T01:39:28.460Z,7.07
2023-02-06T01:41:58.251Z,5.73
2023-02-06T01:44:27.479Z,5.53
2023-02-06T01:46:57.109Z,7.67
2023-02-06T01:49:29.232Z,7.20
2023-02-06T01:51:59.443Z,7.03
2023-02-06T01:54:28.145Z,5.43
2023-02-06T01:56:58.971Z,6.20
2023-02-06T01:59:27.986Z,5.77
2023-02-06T02:01:56.402Z,7.77
2023-02-06T02:04:25.932Z,6.47
2023-02-06T02:06:57.150Z,7.70
2023-02-06T02:09:25.622Z,5.30
2023-02-06T02:11:54.060Z,6.90
2023-02-06T02:14:24.771Z,7.90
2023-02-06T02:16:56.576Z,9.27
2023-02-06T02:19:55.089Z,6.87
2023-02-06T02:22:42.000Z,5.27
2023-02-06T02:25:37.545Z,5.30
2023-02-06T02:28:26.954Z,6.87
2023-02-06T02:31:17.344Z,5.67
2023-02-06T02:33:58.973Z,6.07
2023-02-06T02:36:31.485Z,5.77
2023-02-06T02:39:04.125Z,4.93
2023-02-06T02:41:36.145Z,6.20
2023-02-06T02:44:07.676Z,7.13
2023-02-06T02:46:37.680Z,5.13
2023-02-06T02:49:06.953Z,6.27
2023-02-06T02:51:38.386Z,8.17
2023-02-06T02:54:06.833Z,5.37
2023-02-06T02:56:35.302Z,6.33
2023-02-06T02:59:04.998Z,9.70
2023-02-06T03:01:35.089Z,6.93
2023-02-06T03:04:06.178Z,8.27
2023-02-06T03:06:44.974Z,5.63
2023-02-06T03:09:17.362Z,5.87
2023-02-06T03:11:48.768Z,6.57
2023-02-06T03:14:19.143Z,7.13
2023-02-06T03:16:49.552Z,8.87
2023-02-06T03:19:21.208Z,7.97
2023-02-06T03:21:51.684Z,8.90
2023-02-06T03:24:21.753Z,7.37
2023-02-06T03:26:51.085Z,7.77
2023-02-06T03:29:20.630Z,7.93
2023-02-06T03:31:50.212Z,8.90
2023-02-06T03:34:20.634Z,8.10
2023-02-06T03:36:49.551Z,9.37
2023-02-06T03:39:19.575Z,6.00
2023-02-06T03:41:48.725Z,6.07
2023-02-06T03:44:18.688Z,6.37
2023-02-06T03:46:48.318Z,6.20
2023-02-06T03:49:17.810Z,7.10
2023-02-06T03:51:48.887Z,7.60
2023-02-06T03:54:19.799Z,4.97
2023-02-06T03:56:50.407Z,8.27
2023-02-06T03:59:18.953Z,6.50
2023-02-06T04:01:49.488Z,9.10
2023-02-06T04:04:19.008Z,6.50
2023-02-06T04:06:47.426Z,6.40
2023-02-06T04:09:15.883Z,7.93
2023-02-06T04:11:45.654Z,7.60
2023-02-06T04:14:14.264Z,6.43
2023-02-06T04:16:42.780Z,6.97
2023-02-06T04:19:11.206Z,7.53
2023-02-06T04:21:39.594Z,6.97
2023-02-06T04:24:08.245Z,10.43
2023-02-06T04:26:36.628Z,7.97
2023-02-06T04:29:06.415Z,11.03
2023-02-06T04:31:34.922Z,8.37
2023-02-06T04:34:03.301Z,6.77
2023-02-06T04:36:31.711Z,6.67
2023-02-06T04:39:00.141Z,9.50
2023-02-06T04:41:28.616Z,5.73
2023-02-06T04:43:58.357Z,5.73
2023-02-06T04:46:28.306Z,6.67
2023-02-06T04:48:56.715Z,8.63
2023-02-06T04:51:25.146Z,7.97
2023-02-06T04:53:53.587Z,7.07
2023-02-06T04:56:21.996Z,7.00
2023-02-06T04:58:50.512Z,7.57
2023-02-06T05:01:19.740Z,7.73
2023-02-06T05:03:49.594Z,9.70
2023-02-06T05:06:18.259Z,7.43
2023-02-06T05:08:46.642Z,13.73
2023-02-06T05:11:15.051Z,7.33
2023-02-06T05:13:43.666Z,5.80
2023-02-06T05:16:12.918Z,7.40
2023-02-06T05:18:42.009Z,7.03
2023-02-06T05:21:12.000Z,6.03
2023-02-06T05:23:40.469Z,6.63
2023-02-06T05:26:08.869Z,7.10
2023-02-06T05:28:37.280Z,8.23
2023-02-06T05:31:06.328Z,6.90
2023-02-06T05:33:34.770Z,8.03
2023-02-06T05:36:03.878Z,7.17
2023-02-06T05:38:33.711Z,8.00
2023-02-06T05:41:02.332Z,7.03
2023-02-06T05:43:30.763Z,8.03
2023-02-06T05:45:59.383Z,6.93
2023-02-06T05:48:29.093Z,6.67
2023-02-06T05:50:57.489Z,6.57
2023-02-06T05:53:25.976Z,7.50
2023-02-06T05:55:55.763Z,7.03
2023-02-06T05:58:24.307Z,9.03
2023-02-06T06:00:52.698Z,7.40
2023-02-06T06:03:21.126Z,7.40
2023-02-06T06:05:49.502Z,8.17
2023-02-06T06:08:17.953Z,8.40
2023-02-06T06:10:46.438Z,7.27
2023-02-06T06:13:16.474Z,10.27
2023-02-06T06:15:46.097Z,9.00
2023-02-06T06:18:14.541Z,9.00
2023-02-06T06:20:43.720Z,10.47
2023-02-06T06:23:12.262Z,7.77
2023-02-06T06:25:40.912Z,8.87
2023-02-06T06:28:09.386Z,7.67
2023-02-06T06:30:39.547Z,5.90
2023-02-06T06:33:07.997Z,7.43
2023-02-06T06:35:36.623Z,6.77
2023-02-06T06:38:05.200Z,6.03
2023-02-06T06:40:33.610Z,7.77
2023-02-06T06:43:02.012Z,10.60
2023-02-06T06:45:30.447Z,7.17
2023-02-06T06:48:00.274Z,6.33
2023-02-06T06:50:28.875Z,9.33
2023-02-06T06:52:57.300Z,5.83
2023-02-06T06:55:25.691Z,10.60
2023-02-06T06:57:54.083Z,6.47
2023-02-06T07:00:22.630Z,8.23
2023-02-06T07:02:51.092Z,7.73
2023-02-06T07:05:21.089Z,7.50
2023-02-06T07:07:49.558Z,9.77
2023-02-06T07:10:17.956Z,7.57
2023-02-06T07:12:46.534Z,7.37
2023-02-06T07:15:14.953Z,9.97
2023-02-06T07:17:43.358Z,10.30
2023-02-06T07:20:12.515Z,13.27
2023-02-06T07:22:42.376Z,9.10
2023-02-06T07:25:10.834Z,8.13
2023-02-06T07:27:39.241Z,8.93
2023-02-06T07:30:08.056Z,8.13
2023-02-06T07:32:36.896Z,10.53
2023-02-06T07:35:05.848Z,12.70
2023-02-06T07:37:34.711Z,10.53
2023-02-06T07:40:04.584Z,9.80
2023-02-06T07:42:33.751Z,13.13
2023-02-06T07:45:02.335Z,9.10
2023-02-06T07:47:30.713Z,10.17
2023-02-06T07:49:59.135Z,9.97
2023-02-06T07:52:27.581Z,8.70
2023-02-06T07:54:55.983Z,10.03
2023-02-06T07:57:25.765Z,9.47
2023-02-06T07:59:54.189Z,10.87
2023-02-06T08:02:22.603Z,10.60
2023-02-06T08:04:51.032Z,10.23
2023-02-06T08:07:21.287Z,11.53
2023-02-06T08:09:49.667Z,11.07
2023-02-06T08:12:18.203Z,8.77
2023-02-06T08:14:48.794Z,8.20
2023-02-06T08:17:19.651Z,10.60
2023-02-06T08:19:48.186Z,10.47
2023-02-06T08:22:16.788Z,12.60
2023-02-06T08:24:45.184Z,10.93
2023-02-06T08:27:13.612Z,11.57
2023-02-06T08:29:43.668Z,16.23
2023-02-06T08:32:13.697Z,10.63
2023-02-06T08:34:42.080Z,10.37
2023-02-06T08:37:10.550Z,11.23
2023-02-06T08:39:39.282Z,13.87
2023-02-06T08:42:07.802Z,8.90
2023-02-06T08:44:38.503Z,10.37
2023-02-06T08:47:10.326Z,8.10
2023-02-06T08:49:40.464Z,11.30
2023-02-06T08:52:08.855Z,10.43
2023-02-06T08:54:38.838Z,10.20
2023-02-06T08:57:07.758Z,11.37
2023-02-06T08:59:36.299Z,9.43
2023-02-06T09:02:06.082Z,13.20
2023-02-06T09:04:37.412Z,9.43
2023-02-06T09:07:07.256Z,10.67
2023-02-06T09:09:35.698Z,11.27
2023-02-06T09:12:04.163Z,8.83
2023-02-06T09:14:34.103Z,11.73
2023-02-06T09:17:02.520Z,15.33
2023-02-06T09:19:30.965Z,9.97
2023-02-06T09:21:59.361Z,11.40
2023-02-06T09:24:30.207Z,10.93
2023-02-06T09:27:00.514Z,11.87
2023-02-06T09:29:31.623Z,11.57
2023-02-06T09:32:00.648Z,14.67
2023-02-06T09:34:29.082Z,12.43
2023-02-06T09:36:57.919Z,11.47
2023-02-06T09:39:26.515Z,10.83
2023-02-06T09:41:57.073Z,10.37
2023-02-06T09:44:31.507Z,11.73
2023-02-06T09:47:02.598Z,13.97
2023-02-06T09:49:32.593Z,11.60
2023-02-06T09:52:08.286Z,10.17
2023-02-06T09:54:41.016Z,11.50
2023-02-06T09:57:14.875Z,14.57
2023-02-06T09:59:45.132Z,11.90
2023-02-06T10:02:22.785Z,10.93
2023-02-06T10:04:54.300Z,12.47
2023-02-06T10:07:32.144Z,10.27
2023-02-06T10:10:03.238Z,10.83
2023-02-06T10:12:37.982Z,12.57
2023-02-06T10:15:09.160Z,14.23
2023-02-06T10:17:39.811Z,11.27
2023-02-06T10:20:12.890Z,12.20
2023-02-06T10:22:44.802Z,11.40
2023-02-06T10:25:23.214Z,11.87
2023-02-06T10:27:54.575Z,12.10
2023-02-06T10:30:31.280Z,11.87
2023-02-06T10:33:01.610Z,10.97
2023-02-06T10:35:39.729Z,11.33
2023-02-06T10:38:32.690Z,13.93
2023-02-06T10:41:04.735Z,11.27
2023-02-06T10:43:40.424Z,14.40
2023-02-06T10:46:20.530Z,13.50
2023-02-06T10:48:54.542Z,12.03
2023-02-06T10:51:26.993Z,12.90
2023-02-06T10:53:58.157Z,13.77
2023-02-06T10:56:29.264Z,14.17
2023-02-06T10:59:00.763Z,12.30
2023-02-06T11:01:31.680Z,11.37
2023-02-06T11:04:05.236Z,10.27
2023-02-06T11:06:34.098Z,10.97
2023-02-06T11:09:02.549Z,12.17
2023-02-06T11:11:32.172Z,10.33
2023-02-06T11:14:03.310Z,11.80
2023-02-06T11:16:32.455Z,12.90
2023-02-06T11:19:03.701Z,11.60
2023-02-06T11:21:48.442Z,11.13
2023-02-06T11:24:19.924Z,10.63
2023-02-06T11:26:49.994Z,13.33
2023-02-06T11:29:21.833Z,13.50
2023-02-06T11:31:52.951Z,14.73
2023-02-06T11:34:24.660Z,12.10
2023-02-06T11:36:54.149Z,11.67
2023-02-06T11:39:24.087Z,12.43
2023-02-06T11:41:58.557Z,11.27
2023-02-06T11:44:28.966Z,11.13
2023-02-06T11:46:58.080Z,11.07
2023-02-06T11:49:28.949Z,11.67
2023-02-06T11:51:59.802Z,10.23
2023-02-06T11:54:29.996Z,13.53
2023-02-06T11:57:03.374Z,11.77
2023-02-06T11:59:35.496Z,12.00
2023-02-06T12:02:06.986Z,13.23
2023-02-06T12:04:37.034Z,12.37
2023-02-06T12:07:12.578Z,11.87
2023-02-06T12:09:41.071Z,12.23
2023-02-06T12:12:13.814Z,11.50
2023-02-06T12:14:45.829Z,12.00
2023-02-06T12:17:19.644Z,11.93
2023-02-06T12:19:50.620Z,14.80
2023-02-06T12:22:20.087Z,14.07
2023-02-06T12:24:50.418Z,13.73
2023-02-06T12:27:21.236Z,12.07
2023-02-06T12:29:54.353Z,10.90
2023-02-06T12:32:25.984Z,11.00
2023-02-06T12:34:56.162Z,14.17
2023-02-06T12:37:31.537Z,13.17
2023-02-06T12:40:00.695Z,11.23
2023-02-06T12:42:36.299Z,13.57
2023-02-06T12:45:09.646Z,11.10
2023-02-06T12:47:41.113Z,12.73
2023-02-06T12:50:15.116Z,12.90
2023-02-06T12:52:46.713Z,11.23
2023-02-06T12:55:17.914Z,12.30
2023-02-06T12:57:46.415Z,11.43
2023-02-06T13:00:33.347Z,13.07
2023-02-06T13:03:08.731Z,12.97
2023-02-06T13:05:38.748Z,12.13
2023-02-06T13:08:08.650Z,13.30
2023-02-06T13:10:38.080Z,12.50
2023-02-06T13:13:07.148Z,12.43
2023-02-06T13:15:39.661Z,15.17
2023-02-06T13:18:23.067Z,14.27
2023-02-06T13:21:06.290Z,11.40
2023-02-06T13:23:34.726Z,12.07
2023-02-06T13:26:03.962Z,13.50
2023-02-06T13:28:42.393Z,14.60
2023-02-06T13:31:24.761Z,13.20
2023-02-06T13:33:54.921Z,13.70
2023-02-06T13:36:27.772Z,14.27
2023-02-06T13:38:57.214Z,12.23
2023-02-06T13:41:30.013Z,14.27
2023-02-06T13:43:59.760Z,12.93
2023-02-06T13:46:39.075Z,12.60
2023-02-06T13:49:17.182Z,14.80
2023-02-06T13:51:50.898Z,13.50
2023-02-06T13:54:31.622Z,11.67
2023-02-06T13:57:10.338Z,12.80
2023-02-06T13:59:39.944Z,12.10
2023-02-06T14:02:14.258Z,13.07
2023-02-06T14:04:45.783Z,12.43
2023-02-06T14:07:25.018Z,11.37
2023-02-06T14:10:08.278Z,10.43
2023-02-06T14:12:44.676Z,10.50
2023-02-06T14:15:17.479Z,14.20
2023-02-06T14:17:58.495Z,12.27
2023-02-06T14:20:31.138Z,12.63
2023-02-06T14:23:05.838Z,12.80
2023-02-06T14:25:42.168Z,11.73
2023-02-06T14:28:16.067Z,15.23
2023-02-06T14:30:49.011Z,13.53
2023-02-06T14:33:26.404Z,14.43
2023-02-06T14:36:04.471Z,8.60
2023-02-06T14:38:45.632Z,11.93
2023-02-06T14:41:14.316Z,12.63
2023-02-06T14:43:44.731Z,11.80
2023-02-06T14:46:14.861Z,12.93
2023-02-06T14:48:47.296Z,12.33
2023-02-06T14:51:24.032Z,12.57
2023-02-06T14:53:54.110Z,13.90
2023-02-06T14:56:26.841Z,14.73
2023-02-06T14:58:55.594Z,15.20
2023-02-06T15:01:25.966Z,15.57
2023-02-06T15:04:09.812Z,14.53
2023-02-06T15:06:39.307Z,11.57
2023-02-06T15:09:08.195Z,16.47
2023-02-06T15:11:36.757Z,12.40
2023-02-06T15:14:06.650Z,13.77
2023-02-06T15:16:46.753Z,15.73
2023-02-06T15:19:19.575Z,15.00
2023-02-06T15:21:48.251Z,14.87
2023-02-06T15:24:23.745Z,11.93
2023-02-06T15:26:55.266Z,12.87
2023-02-06T15:29:26.811Z,13.27
2023-02-06T15:32:03.165Z,11.93
2023-02-06T15:34:33.028Z,13.03
2023-02-06T15:37:01.469Z,13.67
2023-02-06T15:39:29.931Z,14.20
2023-02-06T15:41:58.423Z,13.77
2023-02-06T15:44:29.267Z,13.77
2023-02-06T15:46:58.131Z,13.43
2023-02-06T15:49:38.068Z,17.47
2023-02-06T15:52:07.240Z,15.53
2023-02-06T15:54:35.650Z,14.07
2023-02-06T15:57:07.129Z,16.40
2023-02-06T15:59:37.550Z,13.37
2023-02-06T16:02:06.249Z,15.07
2023-02-06T16:04:36.251Z,16.53
2023-02-06T16:07:08.753Z,16.33
2023-02-06T16:09:41.331Z,14.70
2023-02-06T16:12:10.719Z,13.13
2023-02-06T16:14:40.282Z,13.33
2023-02-06T16:17:24.070Z,14.63
2023-02-06T16:19:54.821Z,12.20
2023-02-06T16:22:28.905Z,12.27
2023-02-06T16:24:58.080Z,11.67
2023-02-06T16:27:27.724Z,14.23
2023-02-06T16:29:57.180Z,11.70
2023-02-06T16:32:27.394Z,12.30
2023-02-06T16:34:55.821Z,12.90
2023-02-06T16:37:26.831Z,11.37
2023-02-06T16:39:57.058Z,11.07
2023-02-06T16:42:27.185Z,12.77
2023-02-06T16:44:56.711Z,12.93
2023-02-06T16:47:25.112Z,11.40
2023-02-06T16:49:53.800Z,11.77
2023-02-06T16:52:23.644Z,15.03
2023-02-06T16:54:53.202Z,12.10
2023-02-06T16:57:25.375Z,11.40
2023-02-06T16:59:53.834Z,13.33
2023-02-06T17:02:22.959Z,12.80
2023-02-06T17:04:51.590Z,12.97
2023-02-06T17:07:21.372Z,13.13
2023-02-06T17:09:50.265Z,12.40
2023-02-06T17:12:20.002Z,11.23
2023-02-06T17:14:50.342Z,12.63
2023-02-06T17:17:20.222Z,12.00
2023-02-06T17:19:49.800Z,12.53
2023-02-06T17:22:18.637Z,12.27
2023-02-06T17:24:47.107Z,13.13
2023-02-06T17:27:18.422Z,12.97
2023-02-06T17:29:47.704Z,15.57
2023-02-06T17:32:22.048Z,13.50
2023-02-06T17:34:51.320Z,12.53
2023-02-06T17:37:21.661Z,13.13
2023-02-06T17:39:50.547Z,11.83
2023-02-06T17:42:18.934Z,13.17
2023-02-06T17:44:47.367Z,12.07
2023-02-06T17:47:15.834Z,12.77
2023-02-06T17:49:46.681Z,12.87
2023-02-06T17:52:15.210Z,14.60
2023-02-06T17:54:43.838Z,12.20
2023-02-06T17:57:13.359Z,13.13
2023-02-06T17:59:41.802Z,16.07
2023-02-06T18:02:12.124Z,13.40
2023-02-06T18:04:40.560Z,16.73
2023-02-06T18:07:10.351Z,13.93
2023-02-06T18:09:41.081Z,12.90
2023-02-06T18:12:10.513Z,14.63
2023-02-06T18:14:39.918Z,14.63
2023-02-06T18:17:09.215Z,13.50
2023-02-06T18:19:42.192Z,16.30
2023-02-06T18:22:13.025Z,13.97
2023-02-06T18:24:42.036Z,16.53
2023-02-06T18:27:11.078Z,15.80
2023-02-06T18:29:50.573Z,15.27
2023-02-06T18:32:20.219Z,14.63
2023-02-06T18:34:48.764Z,15.10
2023-02-06T18:37:18.692Z,15.77
2023-02-06T18:39:47.081Z,15.50
2023-02-06T18:42:33.286Z,16.70
2023-02-06T18:45:04.017Z,14.47
2023-02-06T18:47:32.734Z,13.43
2023-02-06T18:50:01.220Z,13.40
2023-02-06T18:52:31.130Z,12.93
2023-02-06T18:54:59.567Z,11.63
2023-02-06T18:57:28.021Z,13.53
2023-02-06T18:59:56.511Z,14.40
2023-02-06T19:02:24.913Z,12.80
2023-02-06T19:04:54.491Z,14.03
2023-02-06T19:07:22.917Z,12.37
2023-02-06T19:09:52.719Z,12.17
2023-02-06T19:12:21.170Z,11.03
2023-02-06T19:14:49.684Z,11.20
2023-02-06T19:17:18.149Z,12.50
2023-02-06T19:19:46.657Z,15.27
2023-02-06T19:22:15.096Z,12.63
2023-02-06T19:24:43.654Z,12.33
2023-02-06T19:27:14.108Z,12.43
2023-02-06T19:29:42.556Z,13.33
2023-02-06T19:32:11.324Z,13.80
2023-02-06T19:34:40.357Z,12.23
2023-02-06T19:37:09.838Z,12.33
2023-02-06T19:39:40.349Z,12.13
2023-02-06T19:42:10.447Z,12.53
2023-02-06T19:44:40.247Z,13.07
2023-02-06T19:47:08.639Z,10.67
2023-02-06T19:49:37.187Z,12.53
2023-02-06T19:52:05.989Z,13.63
2023-02-06T19:54:34.373Z,13.10
2023-02-06T19:57:02.818Z,16.70
2023-02-06T19:59:31.401Z,12.27
2023-02-06T20:02:01.638Z,11.37
2023-02-06T20:04:31.539Z,11.13
2023-02-06T20:07:00.192Z,13.03
2023-02-06T20:09:29.271Z,13.83
2023-02-06T20:11:58.239Z,9.27
2023-02-06T20:14:27.955Z,10.37
2023-02-06T20:16:56.573Z,16.67
2023-02-06T20:19:27.862Z,17.20
2023-02-06T20:21:57.058Z,11.70
2023-02-06T20:24:26.646Z,11.13
2023-02-06T20:26:56.426Z,10.87
2023-02-06T20:29:26.694Z,13.77
2023-02-06T20:31:55.776Z,12.73
2023-02-06T20:34:27.128Z,15.23
2023-02-06T20:36:56.339Z,13.87
2023-02-06T20:39:24.871Z,12.07
2023-02-06T20:41:53.580Z,12.47
2023-02-06T20:44:22.306Z,14.77
2023-02-06T20:46:50.966Z,12.43
2023-02-06T20:49:19.993Z,14.60
2023-02-06T20:51:50.099Z,13.40
2023-02-06T20:54:18.768Z,15.00
2023-02-06T20:56:47.667Z,12.60
2023-02-06T20:59:16.847Z,11.50
2023-02-06T21:01:45.757Z,15.07
2023-02-06T21:04:14.814Z,15.77
2023-02-06T21:06:44.061Z,12.63
2023-02-06T21:09:13.992Z,14.67
2023-02-06T21:11:43.666Z,11.80
2023-02-06T21:14:13.776Z,14.87
2023-02-06T21:16:43.710Z,13.47
2023-02-06T21:19:13.314Z,15.63
2023-02-06T21:21:44.887Z,13.87
2023-02-06T21:24:16.020Z,14.50
2023-02-06T21:26:44.839Z,15.47
2023-02-06T21:29:14.121Z,13.47
2023-02-06T21:31:42.908Z,15.27
2023-02-06T21:34:16.768Z,13.13
2023-02-06T21:36:45.199Z,12.20
2023-02-06T21:39:16.340Z,17.83
2023-02-06T21:41:46.415Z,12.33
2023-02-06T21:44:14.855Z,15.30
2023-02-06T21:46:43.251Z,12.77
2023-02-06T21:49:11.799Z,12.63
2023-02-06T21:51:40.512Z,12.40
2023-02-06T21:54:09.299Z,16.37
2023-02-06T21:56:39.097Z,13.90
2023-02-06T21:59:08.896Z,13.47
2023-02-06T22:01:39.169Z,14.40
2023-02-06T22:04:08.105Z,14.37
2023-02-06T22:06:37.500Z,14.10
2023-02-06T22:09:10.298Z,10.93
2023-02-06T22:11:40.101Z,12.90
2023-02-06T22:14:12.553Z,18.40
2023-02-06T22:16:41.040Z,15.00
2023-02-06T22:19:09.777Z,12.27
2023-02-06T22:21:38.235Z,11.63
2023-02-06T22:24:07.562Z,12.50
2023-02-06T22:26:38.641Z,15.33
2023-02-06T22:29:07.739Z,14.03
2023-02-06T22:31:38.411Z,13.10
2023-02-06T22:34:11.721Z,11.97
2023-02-06T22:36:40.458Z,15.30
2023-02-06T22:39:09.787Z,16.67
2023-02-06T22:41:40.200Z,14.03
2023-02-06T22:44:08.795Z,13.53
2023-02-06T22:46:39.590Z,13.00
2023-02-06T22:49:08.879Z,11.27
2023-02-06T22:51:37.767Z,15.00
2023-02-06T22:54:06.640Z,12.60
2023-02-06T22:56:36.798Z,13.17
2023-02-06T22:59:06.374Z,11.80
2023-02-06T23:01:35.610Z,13.17
2023-02-06T23:04:06.595Z,14.80
2023-02-06T23:06:35.939Z,13.30
2023-02-06T23:09:05.725Z,16.60
2023-02-06T23:11:34.379Z,14.07
2023-02-06T23:14:04.485Z,12.10
2023-02-06T23:16:33.926Z,14.13
2023-02-06T23:19:04.633Z,16.63
2023-02-06T23:21:35.894Z,13.77
2023-02-06T23:24:04.615Z,10.70
2023-02-06T23:26:33.314Z,12.47
2023-02-06T23:29:02.604Z,12.57
2023-02-06T23:31:31.138Z,13.03
2023-02-06T23:33:59.582Z,13.03
2023-02-06T23:36:28.824Z,14.60
2023-02-06T23:38:58.641Z,14.50
2023-02-06T23:41:28.130Z,13.03
2023-02-06T23:43:57.364Z,17.93
2023-02-06T23:46:26.266Z,12.87
2023-02-06T23:48:54.832Z,13.10
2023-02-06T23:51:23.634Z,12.67
2023-02-06T23:53:52.112Z,12.83
2023-02-06T23:56:23.119Z,13.60
2023-02-06T23:58:51.909Z,14.17
